sensor_id;sensor_type;location;lat;lon;timestamp;temperature;humidity
76239;SHT30;65043;48.392;-4.472;2022-11-20T00:01:48;11.94;85.37
76239;SHT30;65043;48.392;-4.472;2022-11-20T00:04:13;12.06;85.76
76239;SHT30;65043;48.392;-4.472;2022-11-20T00:06:39;12.06;85.85
76239;SHT30;65043;48.392;-4.472;2022-11-20T00:09:04;12.07;86.05
76239;SHT30;65043;48.392;-4.472;2022-11-20T00:11:31;12.10;86.12
76239;SHT30;65043;48.392;-4.472;2022-11-20T00:14:00;12.09;86.23
76239;SHT30;65043;48.392;-4.472;2022-11-20T00:16:27;12.07;86.49
76239;SHT30;65043;48.392;-4.472;2022-11-20T00:18:53;12.12;86.36
76239;SHT30;65043;48.392;-4.472;2022-11-20T00:21:24;12.20;85.72
76239;SHT30;65043;48.392;-4.472;2022-11-20T00:23:52;12.23;86.15
76239;SHT30;65043;48.392;-4.472;2022-11-20T00:26:19;12.38;85.23
76239;SHT30;65043;48.392;-4.472;2022-11-20T00:28:53;12.45;85.16
76239;SHT30;65043;48.392;-4.472;2022-11-20T00:31:19;12.43;86.05
76239;SHT30;65043;48.392;-4.472;2022-11-20T00:33:45;12.48;85.68
76239;SHT30;65043;48.392;-4.472;2022-11-20T00:36:18;12.57;85.50
76239;SHT30;65043;48.392;-4.472;2022-11-20T00:38:44;12.65;84.85
76239;SHT30;65043;48.392;-4.472;2022-11-20T00:41:12;12.72;85.59
76239;SHT30;65043;48.392;-4.472;2022-11-20T00:43:38;12.78;85.58
76239;SHT30;65043;48.392;-4.472;2022-11-20T00:46:05;12.84;84.36
76239;SHT30;65043;48.392;-4.472;2022-11-20T00:48:30;12.85;85.14
76239;SHT30;65043;48.392;-4.472;2022-11-20T00:50:56;12.88;85.20
76239;SHT30;65043;48.392;-4.472;2022-11-20T00:53:22;12.87;85.14
76239;SHT30;65043;48.392;-4.472;2022-11-20T00:56:02;12.88;86.05
76239;SHT30;65043;48.392;-4.472;2022-11-20T00:58:31;12.89;85.80
76239;SHT30;65043;48.392;-4.472;2022-11-20T01:03:44;13.01;85.48
76239;SHT30;65043;48.392;-4.472;2022-11-20T01:06:25;13.08;85.54
76239;SHT30;65043;48.392;-4.472;2022-11-20T01:08:54;13.16;84.86
76239;SHT30;65043;48.392;-4.472;2022-11-20T01:11:22;13.23;84.47
76239;SHT30;65043;48.392;-4.472;2022-11-20T01:13:50;13.26;84.75
76239;SHT30;65043;48.392;-4.472;2022-11-20T01:16:18;13.35;84.14
76239;SHT30;65043;48.392;-4.472;2022-11-20T01:18:48;13.44;83.86
76239;SHT30;65043;48.392;-4.472;2022-11-20T01:21:23;13.46;83.65
76239;SHT30;65043;48.392;-4.472;2022-11-20T01:23:49;13.52;83.29
76239;SHT30;65043;48.392;-4.472;2022-11-20T01:26:18;13.56;82.88
76239;SHT30;65043;48.392;-4.472;2022-11-20T01:28:46;13.56;83.03
76239;SHT30;65043;48.392;-4.472;2022-11-20T01:33:40;13.63;82.51
76239;SHT30;65043;48.392;-4.472;2022-11-20T01:36:07;13.66;82.36
76239;SHT30;65043;48.392;-4.472;2022-11-20T01:38:33;13.69;81.96
76239;SHT30;65043;48.392;-4.472;2022-11-20T01:40:58;13.67;81.50
76239;SHT30;65043;48.392;-4.472;2022-11-20T01:43:24;13.73;81.60
76239;SHT30;65043;48.392;-4.472;2022-11-20T01:53:52;13.71;80.46
76239;SHT30;65043;48.392;-4.472;2022-11-20T01:56:18;13.71;80.32
76239;SHT30;65043;48.392;-4.472;2022-11-20T01:58:48;13.70;80.10
76239;SHT30;65043;48.392;-4.472;2022-11-20T02:01:15;13.69;80.13
76239;SHT30;65043;48.392;-4.472;2022-11-20T02:03:41;13.67;79.93
76239;SHT30;65043;48.392;-4.472;2022-11-20T02:06:19;13.67;79.74
76239;SHT30;65043;48.392;-4.472;2022-11-20T02:08:46;13.69;79.76
76239;SHT30;65043;48.392;-4.472;2022-11-20T02:11:12;13.67;79.34
76239;SHT30;65043;48.392;-4.472;2022-11-20T02:13:38;13.69;79.17
76239;SHT30;65043;48.392;-4.472;2022-11-20T02:16:36;13.69;79.15
76239;SHT30;65043;48.392;-4.472;2022-11-20T02:19:04;13.67;79.12
76239;SHT30;65043;48.392;-4.472;2022-11-20T02:24:03;13.67;78.57
76239;SHT30;65043;48.392;-4.472;2022-11-20T02:26:31;13.66;78.44
76239;SHT30;65043;48.392;-4.472;2022-11-20T02:28:59;13.63;78.39
76239;SHT30;65043;48.392;-4.472;2022-11-20T02:31:25;13.61;78.25
76239;SHT30;65043;48.392;-4.472;2022-11-20T02:33:56;13.60;78.26
76239;SHT30;65043;48.392;-4.472;2022-11-20T02:36:21;13.54;78.10
76239;SHT30;65043;48.392;-4.472;2022-11-20T02:38:49;13.53;78.02
76239;SHT30;65043;48.392;-4.472;2022-11-20T02:41:15;13.54;77.69
76239;SHT30;65043;48.392;-4.472;2022-11-20T02:43:40;13.50;77.93
76239;SHT30;65043;48.392;-4.472;2022-11-20T02:46:07;13.50;77.58
76239;SHT30;65043;48.392;-4.472;2022-11-20T02:48:32;13.49;77.76
76239;SHT30;65043;48.392;-4.472;2022-11-20T02:50:58;13.46;77.69
76239;SHT30;65043;48.392;-4.472;2022-11-20T02:53:23;13.40;77.81
76239;SHT30;65043;48.392;-4.472;2022-11-20T02:55:49;13.35;77.91
76239;SHT30;65043;48.392;-4.472;2022-11-20T02:58:14;13.36;77.99
76239;SHT30;65043;48.392;-4.472;2022-11-20T03:00:39;13.33;77.90
76239;SHT30;65043;48.392;-4.472;2022-11-20T03:03:05;13.29;77.94
76239;SHT30;65043;48.392;-4.472;2022-11-20T03:05:30;13.24;78.08
76239;SHT30;65043;48.392;-4.472;2022-11-20T03:07:55;13.23;78.12
76239;SHT30;65043;48.392;-4.472;2022-11-20T03:10:21;13.20;78.07
76239;SHT30;65043;48.392;-4.472;2022-11-20T03:12:46;13.16;78.14
76239;SHT30;65043;48.392;-4.472;2022-11-20T03:15:12;13.13;78.20
76239;SHT30;65043;48.392;-4.472;2022-11-20T03:17:37;13.11;78.22
76239;SHT30;65043;48.392;-4.472;2022-11-20T03:20:03;13.08;78.18
76239;SHT30;65043;48.392;-4.472;2022-11-20T03:22:29;13.05;78.30
76239;SHT30;65043;48.392;-4.472;2022-11-20T03:24:55;13.05;78.34
76239;SHT30;65043;48.392;-4.472;2022-11-20T03:27:21;13.08;78.25
76239;SHT30;65043;48.392;-4.472;2022-11-20T03:29:46;13.05;78.35
76239;SHT30;65043;48.392;-4.472;2022-11-20T03:32:12;13.06;78.42
76239;SHT30;65043;48.392;-4.472;2022-11-20T03:34:37;13.03;78.49
76239;SHT30;65043;48.392;-4.472;2022-11-20T03:37:02;13.03;78.51
76239;SHT30;65043;48.392;-4.472;2022-11-20T03:39:28;13.02;78.43
76239;SHT30;65043;48.392;-4.472;2022-11-20T03:41:53;13.03;78.40
76239;SHT30;65043;48.392;-4.472;2022-11-20T03:44:21;13.03;78.57
76239;SHT30;65043;48.392;-4.472;2022-11-20T03:46:46;13.05;78.52
76239;SHT30;65043;48.392;-4.472;2022-11-20T03:49:11;13.03;78.45
76239;SHT30;65043;48.392;-4.472;2022-11-20T03:51:37;13.02;78.39
76239;SHT30;65043;48.392;-4.472;2022-11-20T03:54:07;12.99;78.54
76239;SHT30;65043;48.392;-4.472;2022-11-20T03:56:35;13.02;78.57
76239;SHT30;65043;48.392;-4.472;2022-11-20T03:59:02;12.98;78.54
76239;SHT30;65043;48.392;-4.472;2022-11-20T04:01:33;12.99;78.56
76239;SHT30;65043;48.392;-4.472;2022-11-20T04:03:59;12.99;78.53
76239;SHT30;65043;48.392;-4.472;2022-11-20T04:06:28;13.02;78.40
76239;SHT30;65043;48.392;-4.472;2022-11-20T04:08:58;13.02;78.29
76239;SHT30;65043;48.392;-4.472;2022-11-20T04:11:26;13.03;78.27
76239;SHT30;65043;48.392;-4.472;2022-11-20T04:13:53;13.05;78.21
76239;SHT30;65043;48.392;-4.472;2022-11-20T04:16:20;13.12;77.47
76239;SHT30;65043;48.392;-4.472;2022-11-20T04:18:46;13.11;77.14
76239;SHT30;65043;48.392;-4.472;2022-11-20T04:21:11;13.08;76.32
76239;SHT30;65043;48.392;-4.472;2022-11-20T04:23:37;13.06;75.17
76239;SHT30;65043;48.392;-4.472;2022-11-20T04:26:10;13.01;74.88
76239;SHT30;65043;48.392;-4.472;2022-11-20T04:28:36;12.98;73.66
76239;SHT30;65043;48.392;-4.472;2022-11-20T04:31:06;12.92;74.94
76239;SHT30;65043;48.392;-4.472;2022-11-20T04:33:32;12.93;74.17
76239;SHT30;65043;48.392;-4.472;2022-11-20T04:36:07;12.92;73.41
76239;SHT30;65043;48.392;-4.472;2022-11-20T04:38:34;12.87;73.74
76239;SHT30;65043;48.392;-4.472;2022-11-20T04:41:02;12.85;72.35
76239;SHT30;65043;48.392;-4.472;2022-11-20T04:43:28;12.81;72.58
76239;SHT30;65043;48.392;-4.472;2022-11-20T04:45:54;12.74;72.15
76239;SHT30;65043;48.392;-4.472;2022-11-20T04:48:22;12.72;72.92
76239;SHT30;65043;48.392;-4.472;2022-11-20T04:50:47;12.71;73.18
76239;SHT30;65043;48.392;-4.472;2022-11-20T04:53:13;12.69;73.35
76239;SHT30;65043;48.392;-4.472;2022-11-20T04:55:38;12.67;72.90
76239;SHT30;65043;48.392;-4.472;2022-11-20T04:58:04;12.64;73.17
76239;SHT30;65043;48.392;-4.472;2022-11-20T05:00:29;12.64;73.03
76239;SHT30;65043;48.392;-4.472;2022-11-20T05:02:55;12.64;73.06
76239;SHT30;65043;48.392;-4.472;2022-11-20T05:05:21;12.65;73.06
76239;SHT30;65043;48.392;-4.472;2022-11-20T05:07:46;12.64;73.25
76239;SHT30;65043;48.392;-4.472;2022-11-20T05:10:11;12.65;73.72
76239;SHT30;65043;48.392;-4.472;2022-11-20T05:12:37;12.61;73.57
76239;SHT30;65043;48.392;-4.472;2022-11-20T05:15:02;12.64;73.64
76239;SHT30;65043;48.392;-4.472;2022-11-20T05:17:28;12.60;73.54
76239;SHT30;65043;48.392;-4.472;2022-11-20T05:19:53;12.61;73.88
76239;SHT30;65043;48.392;-4.472;2022-11-20T05:22:19;12.58;73.49
76239;SHT30;65043;48.392;-4.472;2022-11-20T05:24:44;12.54;73.71
76239;SHT30;65043;48.392;-4.472;2022-11-20T05:27:09;12.53;73.81
76239;SHT30;65043;48.392;-4.472;2022-11-20T05:29:35;12.53;73.67
76239;SHT30;65043;48.392;-4.472;2022-11-20T05:32:00;12.48;73.58
76239;SHT30;65043;48.392;-4.472;2022-11-20T05:34:26;12.50;73.77
76239;SHT30;65043;48.392;-4.472;2022-11-20T05:36:51;12.47;73.52
76239;SHT30;65043;48.392;-4.472;2022-11-20T05:39:16;12.47;73.66
76239;SHT30;65043;48.392;-4.472;2022-11-20T05:41:42;12.44;73.61
76239;SHT30;65043;48.392;-4.472;2022-11-20T05:44:10;12.45;73.87
76239;SHT30;65043;48.392;-4.472;2022-11-20T05:46:36;12.43;73.61
76239;SHT30;65043;48.392;-4.472;2022-11-20T05:49:01;12.41;73.70
76239;SHT30;65043;48.392;-4.472;2022-11-20T05:51:27;12.37;73.68
76239;SHT30;65043;48.392;-4.472;2022-11-20T05:53:53;12.36;73.80
76239;SHT30;65043;48.392;-4.472;2022-11-20T05:56:20;12.36;73.85
76239;SHT30;65043;48.392;-4.472;2022-11-20T05:58:46;12.31;73.47
76239;SHT30;65043;48.392;-4.472;2022-11-20T06:01:19;12.33;73.52
76239;SHT30;65043;48.392;-4.472;2022-11-20T06:03:45;12.34;73.68
76239;SHT30;65043;48.392;-4.472;2022-11-20T06:06:13;12.34;73.55
76239;SHT30;65043;48.392;-4.472;2022-11-20T06:08:38;12.33;73.58
76239;SHT30;65043;48.392;-4.472;2022-11-20T06:11:05;12.34;73.65
76239;SHT30;65043;48.392;-4.472;2022-11-20T06:13:31;12.33;73.61
76239;SHT30;65043;48.392;-4.472;2022-11-20T06:15:57;12.31;73.73
76239;SHT30;65043;48.392;-4.472;2022-11-20T06:18:22;12.31;73.44
76239;SHT30;65043;48.392;-4.472;2022-11-20T06:20:48;12.30;73.33
76239;SHT30;65043;48.392;-4.472;2022-11-20T06:23:13;12.27;73.50
76239;SHT30;65043;48.392;-4.472;2022-11-20T06:25:40;12.27;73.48
76239;SHT30;65043;48.392;-4.472;2022-11-20T06:28:06;12.23;73.44
76239;SHT30;65043;48.392;-4.472;2022-11-20T06:30:32;12.22;73.42
76239;SHT30;65043;48.392;-4.472;2022-11-20T06:32:57;12.23;73.63
76239;SHT30;65043;48.392;-4.472;2022-11-20T06:35:23;12.26;73.61
76239;SHT30;65043;48.392;-4.472;2022-11-20T06:37:48;12.23;73.68
76239;SHT30;65043;48.392;-4.472;2022-11-20T06:40:13;12.27;73.64
76239;SHT30;65043;48.392;-4.472;2022-11-20T06:42:39;12.27;73.67
76239;SHT30;65043;48.392;-4.472;2022-11-20T06:45:04;12.30;73.37
76239;SHT30;65043;48.392;-4.472;2022-11-20T06:47:30;12.30;73.47
76239;SHT30;65043;48.392;-4.472;2022-11-20T06:49:56;12.31;73.31
76239;SHT30;65043;48.392;-4.472;2022-11-20T06:52:21;12.37;73.24
76239;SHT30;65043;48.392;-4.472;2022-11-20T06:54:46;12.38;73.28
76239;SHT30;65043;48.392;-4.472;2022-11-20T06:57:12;12.38;72.82
76239;SHT30;65043;48.392;-4.472;2022-11-20T06:59:37;12.40;72.91
76239;SHT30;65043;48.392;-4.472;2022-11-20T07:02:02;12.41;73.05
76239;SHT30;65043;48.392;-4.472;2022-11-20T07:04:28;12.45;72.04
76239;SHT30;65043;48.392;-4.472;2022-11-20T07:06:53;12.47;72.51
76239;SHT30;65043;48.392;-4.472;2022-11-20T07:09:18;12.44;72.28
76239;SHT30;65043;48.392;-4.472;2022-11-20T07:11:44;12.44;71.42
76239;SHT30;65043;48.392;-4.472;2022-11-20T07:14:09;12.43;72.19
76239;SHT30;65043;48.392;-4.472;2022-11-20T07:16:35;12.44;72.19
76239;SHT30;65043;48.392;-4.472;2022-11-20T07:19:00;12.44;72.20
76239;SHT30;65043;48.392;-4.472;2022-11-20T07:21:26;12.43;72.35
76239;SHT30;65043;48.392;-4.472;2022-11-20T07:23:51;12.45;72.68
76239;SHT30;65043;48.392;-4.472;2022-11-20T07:26:17;12.44;72.09
76239;SHT30;65043;48.392;-4.472;2022-11-20T07:28:44;12.44;72.22
76239;SHT30;65043;48.392;-4.472;2022-11-20T07:31:10;12.48;71.79
76239;SHT30;65043;48.392;-4.472;2022-11-20T07:33:37;12.48;71.68
76239;SHT30;65043;48.392;-4.472;2022-11-20T07:36:03;12.45;71.90
76239;SHT30;65043;48.392;-4.472;2022-11-20T07:38:28;12.44;71.89
76239;SHT30;65043;48.392;-4.472;2022-11-20T07:40:55;12.48;71.62
76239;SHT30;65043;48.392;-4.472;2022-11-20T07:43:22;12.44;71.83
76239;SHT30;65043;48.392;-4.472;2022-11-20T07:45:48;12.48;71.67
76239;SHT30;65043;48.392;-4.472;2022-11-20T07:48:13;12.47;72.21
76239;SHT30;65043;48.392;-4.472;2022-11-20T07:50:38;12.48;71.48
76239;SHT30;65043;48.392;-4.472;2022-11-20T07:53:04;12.50;71.90
76239;SHT30;65043;48.392;-4.472;2022-11-20T07:55:30;12.45;72.08
76239;SHT30;65043;48.392;-4.472;2022-11-20T07:57:56;12.44;72.13
76239;SHT30;65043;48.392;-4.472;2022-11-20T08:00:22;12.41;72.39
76239;SHT30;65043;48.392;-4.472;2022-11-20T08:02:48;12.45;72.25
76239;SHT30;65043;48.392;-4.472;2022-11-20T08:05:13;12.44;71.71
76239;SHT30;65043;48.392;-4.472;2022-11-20T08:07:39;12.47;72.08
76239;SHT30;65043;48.392;-4.472;2022-11-20T08:10:06;12.50;72.09
76239;SHT30;65043;48.392;-4.472;2022-11-20T08:12:33;12.50;71.54
76239;SHT30;65043;48.392;-4.472;2022-11-20T08:15:16;12.50;71.78
76239;SHT30;65043;48.392;-4.472;2022-11-20T08:17:42;12.50;71.46
76239;SHT30;65043;48.392;-4.472;2022-11-20T08:20:08;12.50;71.62
76239;SHT30;65043;48.392;-4.472;2022-11-20T08:22:33;12.51;71.86
76239;SHT30;65043;48.392;-4.472;2022-11-20T08:24:58;12.54;71.71
76239;SHT30;65043;48.392;-4.472;2022-11-20T08:27:24;12.55;71.78
76239;SHT30;65043;48.392;-4.472;2022-11-20T08:29:49;12.57;72.13
76239;SHT30;65043;48.392;-4.472;2022-11-20T08:32:15;12.60;71.03
76239;SHT30;65043;48.392;-4.472;2022-11-20T08:34:40;12.62;71.62
76239;SHT30;65043;48.392;-4.472;2022-11-20T08:37:05;12.65;71.06
76239;SHT30;65043;48.392;-4.472;2022-11-20T08:39:31;12.68;71.69
76239;SHT30;65043;48.392;-4.472;2022-11-20T08:41:56;12.69;71.49
76239;SHT30;65043;48.392;-4.472;2022-11-20T08:44:22;12.74;71.06
76239;SHT30;65043;48.392;-4.472;2022-11-20T08:46:47;12.77;71.29
76239;SHT30;65043;48.392;-4.472;2022-11-20T08:49:13;12.82;70.72
76239;SHT30;65043;48.392;-4.472;2022-11-20T08:51:39;12.87;69.52
76239;SHT30;65043;48.392;-4.472;2022-11-20T08:54:06;12.92;69.81
76239;SHT30;65043;48.392;-4.472;2022-11-20T08:56:32;12.88;69.40
76239;SHT30;65043;48.392;-4.472;2022-11-20T08:58:57;12.92;70.10
76239;SHT30;65043;48.392;-4.472;2022-11-20T09:01:25;12.91;69.92
76239;SHT30;65043;48.392;-4.472;2022-11-20T09:03:51;12.88;70.20
76239;SHT30;65043;48.392;-4.472;2022-11-20T09:06:17;12.91;70.22
76239;SHT30;65043;48.392;-4.472;2022-11-20T09:08:43;12.93;69.86
76239;SHT30;65043;48.392;-4.472;2022-11-20T09:11:09;12.89;70.27
76239;SHT30;65043;48.392;-4.472;2022-11-20T09:13:35;12.91;70.06
76239;SHT30;65043;48.392;-4.472;2022-11-20T09:16:08;12.89;69.76
76239;SHT30;65043;48.392;-4.472;2022-11-20T09:18:35;12.89;69.73
76239;SHT30;65043;48.392;-4.472;2022-11-20T09:21:08;12.96;69.78
76239;SHT30;65043;48.392;-4.472;2022-11-20T09:23:36;12.98;70.26
76239;SHT30;65043;48.392;-4.472;2022-11-20T09:26:03;13.02;69.65
76239;SHT30;65043;48.392;-4.472;2022-11-20T09:28:30;13.06;70.12
76239;SHT30;65043;48.392;-4.472;2022-11-20T09:30:55;13.15;69.21
76239;SHT30;65043;48.392;-4.472;2022-11-20T09:33:21;13.20;69.00
76239;SHT30;65043;48.392;-4.472;2022-11-20T09:35:46;13.23;68.73
76239;SHT30;65043;48.392;-4.472;2022-11-20T09:38:12;13.29;68.78
76239;SHT30;65043;48.392;-4.472;2022-11-20T09:40:45;13.35;68.89
76239;SHT30;65043;48.392;-4.472;2022-11-20T09:43:13;13.33;68.95
76239;SHT30;65043;48.392;-4.472;2022-11-20T09:56:19;13.46;68.95
76239;SHT30;65043;48.392;-4.472;2022-11-20T09:58:51;13.47;68.86
76239;SHT30;65043;48.392;-4.472;2022-11-20T10:01:19;13.50;68.95
76239;SHT30;65043;48.392;-4.472;2022-11-20T10:07:13;13.53;69.34
76239;SHT30;65043;48.392;-4.472;2022-11-20T10:09:29;13.54;69.58
76239;SHT30;65043;48.392;-4.472;2022-11-20T10:12:07;13.59;69.19
76239;SHT30;65043;48.392;-4.472;2022-11-20T10:25:18;13.66;68.85
76239;SHT30;65043;48.392;-4.472;2022-11-20T10:30:36;13.73;68.40
76239;SHT30;65043;48.392;-4.472;2022-11-20T10:33:19;13.75;68.59
76239;SHT30;65043;48.392;-4.472;2022-11-20T10:38:36;13.77;67.53
76239;SHT30;65043;48.392;-4.472;2022-11-20T10:41:03;13.80;67.55
76239;SHT30;65043;48.392;-4.472;2022-11-20T10:44:24;13.80;67.44
76239;SHT30;65043;48.392;-4.472;2022-11-20T10:47:14;13.80;67.53
76239;SHT30;65043;48.392;-4.472;2022-11-20T10:49:41;13.81;67.90
76239;SHT30;65043;48.392;-4.472;2022-11-20T10:55:03;13.84;66.84
76239;SHT30;65043;48.392;-4.472;2022-11-20T11:00:01;13.82;66.71
76239;SHT30;65043;48.392;-4.472;2022-11-20T11:02:48;13.84;67.08
76239;SHT30;65043;48.392;-4.472;2022-11-20T11:07:51;13.91;66.60
76239;SHT30;65043;48.392;-4.472;2022-11-20T11:12:53;13.92;65.88
76239;SHT30;65043;48.392;-4.472;2022-11-20T11:15:44;13.98;66.40
76239;SHT30;65043;48.392;-4.472;2022-11-20T11:18:11;13.97;66.56
76239;SHT30;65043;48.392;-4.472;2022-11-20T11:20:37;14.02;66.32
76239;SHT30;65043;48.392;-4.472;2022-11-20T11:23:02;14.05;66.15
76239;SHT30;65043;48.392;-4.472;2022-11-20T11:25:34;14.11;66.13
76239;SHT30;65043;48.392;-4.472;2022-11-20T11:28:29;14.14;66.32
76239;SHT30;65043;48.392;-4.472;2022-11-20T11:30:55;14.18;66.14
76239;SHT30;65043;48.392;-4.472;2022-11-20T11:33:27;14.20;65.79
76239;SHT30;65043;48.392;-4.472;2022-11-20T11:35:58;14.20;66.15
76239;SHT30;65043;48.392;-4.472;2022-11-20T11:38:35;14.20;66.22
76239;SHT30;65043;48.392;-4.472;2022-11-20T11:41:02;14.20;66.23
76239;SHT30;65043;48.392;-4.472;2022-11-20T11:43:31;14.25;66.37
76239;SHT30;65043;48.392;-4.472;2022-11-20T11:51:26;14.36;64.98
76239;SHT30;65043;48.392;-4.472;2022-11-20T11:53:55;14.41;65.64
76239;SHT30;65043;48.392;-4.472;2022-11-20T11:56:22;14.46;65.30
76239;SHT30;65043;48.392;-4.472;2022-11-20T11:58:50;14.46;64.76
76239;SHT30;65043;48.392;-4.472;2022-11-20T12:01:42;14.48;65.21
76239;SHT30;65043;48.392;-4.472;2022-11-20T12:04:42;14.49;64.29
76239;SHT30;65043;48.392;-4.472;2022-11-20T12:07:19;14.55;64.43
76239;SHT30;65043;48.392;-4.472;2022-11-20T12:09:50;14.58;64.67
76239;SHT30;65043;48.392;-4.472;2022-11-20T12:12:20;14.55;64.05
76239;SHT30;65043;48.392;-4.472;2022-11-20T12:14:48;14.49;64.73
76239;SHT30;65043;48.392;-4.472;2022-11-20T12:17:16;14.53;64.90
76239;SHT30;65043;48.392;-4.472;2022-11-20T12:19:44;14.59;64.89
76239;SHT30;65043;48.392;-4.472;2022-11-20T12:25:39;14.62;62.78
76239;SHT30;65043;48.392;-4.472;2022-11-20T12:33:57;14.76;63.24
76239;SHT30;65043;48.392;-4.472;2022-11-20T12:56:24;14.81;65.08
76239;SHT30;65043;48.392;-4.472;2022-11-20T12:59:14;14.81;65.31
76239;SHT30;65043;48.392;-4.472;2022-11-20T13:07:30;14.83;65.30
76239;SHT30;65043;48.392;-4.472;2022-11-20T13:09:56;14.83;65.48
76239;SHT30;65043;48.392;-4.472;2022-11-20T13:12:31;14.80;65.22
76239;SHT30;65043;48.392;-4.472;2022-11-20T13:15:08;14.79;64.95
76239;SHT30;65043;48.392;-4.472;2022-11-20T13:17:50;14.80;65.26
76239;SHT30;65043;48.392;-4.472;2022-11-20T13:20:18;14.81;64.96
76239;SHT30;65043;48.392;-4.472;2022-11-20T13:22:45;14.84;65.49
76239;SHT30;65043;48.392;-4.472;2022-11-20T13:25:25;14.87;64.75
76239;SHT30;65043;48.392;-4.472;2022-11-20T13:27:52;14.81;65.15
76239;SHT30;65043;48.392;-4.472;2022-11-20T13:30:20;14.81;64.96
76239;SHT30;65043;48.392;-4.472;2022-11-20T13:33:08;14.77;65.11
76239;SHT30;65043;48.392;-4.472;2022-11-20T13:38:13;14.77;65.26
76239;SHT30;65043;48.392;-4.472;2022-11-20T13:40:56;14.79;65.79
76239;SHT30;65043;48.392;-4.472;2022-11-20T13:43:42;14.79;65.68
76239;SHT30;65043;48.392;-4.472;2022-11-20T13:46:10;14.80;65.65
76239;SHT30;65043;48.392;-4.472;2022-11-20T13:48:43;14.81;65.88
76239;SHT30;65043;48.392;-4.472;2022-11-20T13:51:15;14.80;66.34
76239;SHT30;65043;48.392;-4.472;2022-11-20T14:02:20;14.89;66.10
76239;SHT30;65043;48.392;-4.472;2022-11-20T14:04:53;14.90;66.59
76239;SHT30;65043;48.392;-4.472;2022-11-20T14:07:21;14.91;66.24
76239;SHT30;65043;48.392;-4.472;2022-11-20T14:09:54;14.90;66.02
76239;SHT30;65043;48.392;-4.472;2022-11-20T14:12:23;14.93;66.01
76239;SHT30;65043;48.392;-4.472;2022-11-20T14:14:53;14.94;65.51
76239;SHT30;65043;48.392;-4.472;2022-11-20T14:19:55;14.97;64.75
76239;SHT30;65043;48.392;-4.472;2022-11-20T14:22:25;14.93;64.26
76239;SHT30;65043;48.392;-4.472;2022-11-20T14:25:19;14.89;64.69
76239;SHT30;65043;48.392;-4.472;2022-11-20T14:27:51;14.89;64.43
76239;SHT30;65043;48.392;-4.472;2022-11-20T14:30:20;14.83;64.73
76239;SHT30;65043;48.392;-4.472;2022-11-20T14:32:47;14.80;65.00
76239;SHT30;65043;48.392;-4.472;2022-11-20T14:35:35;14.80;65.05
76239;SHT30;65043;48.392;-4.472;2022-11-20T14:38:03;14.75;65.21
76239;SHT30;65043;48.392;-4.472;2022-11-20T14:40:34;14.72;65.59
76239;SHT30;65043;48.392;-4.472;2022-11-20T14:43:26;14.70;65.49
76239;SHT30;65043;48.392;-4.472;2022-11-20T14:45:58;14.69;65.68
76239;SHT30;65043;48.392;-4.472;2022-11-20T14:48:30;14.68;65.98
76239;SHT30;65043;48.392;-4.472;2022-11-20T14:50:56;14.69;66.24
76239;SHT30;65043;48.392;-4.472;2022-11-20T14:53:23;14.69;66.32
76239;SHT30;65043;48.392;-4.472;2022-11-20T14:55:55;14.69;66.15
76239;SHT30;65043;48.392;-4.472;2022-11-20T14:58:23;14.68;66.24
76239;SHT30;65043;48.392;-4.472;2022-11-20T15:01:05;14.66;66.60
76239;SHT30;65043;48.392;-4.472;2022-11-20T15:03:39;14.60;66.99
76239;SHT30;65043;48.392;-4.472;2022-11-20T15:06:06;14.60;66.86
76239;SHT30;65043;48.392;-4.472;2022-11-20T15:08:33;14.60;66.83
76239;SHT30;65043;48.392;-4.472;2022-11-20T15:10:59;14.62;66.83
76239;SHT30;65043;48.392;-4.472;2022-11-20T15:13:31;14.62;66.85
76239;SHT30;65043;48.392;-4.472;2022-11-20T15:16:00;14.60;66.94
76239;SHT30;65043;48.392;-4.472;2022-11-20T15:18:39;14.56;66.79
76239;SHT30;65043;48.392;-4.472;2022-11-20T15:21:11;14.56;67.28
76239;SHT30;65043;48.392;-4.472;2022-11-20T15:23:37;14.55;67.24
76239;SHT30;65043;48.392;-4.472;2022-11-20T15:26:05;14.53;67.48
76239;SHT30;65043;48.392;-4.472;2022-11-20T15:28:33;14.56;67.44
76239;SHT30;65043;48.392;-4.472;2022-11-20T15:31:00;14.53;67.53
76239;SHT30;65043;48.392;-4.472;2022-11-20T15:33:25;14.55;67.49
76239;SHT30;65043;48.392;-4.472;2022-11-20T15:35:51;14.55;67.47
76239;SHT30;65043;48.392;-4.472;2022-11-20T15:38:16;14.53;67.50
76239;SHT30;65043;48.392;-4.472;2022-11-20T15:40:42;14.53;67.61
76239;SHT30;65043;48.392;-4.472;2022-11-20T15:43:07;14.55;67.65
76239;SHT30;65043;48.392;-4.472;2022-11-20T15:45:44;14.58;67.92
76239;SHT30;65043;48.392;-4.472;2022-11-20T15:48:17;14.56;67.88
76239;SHT30;65043;48.392;-4.472;2022-11-20T15:50:51;14.52;67.90
76239;SHT30;65043;48.392;-4.472;2022-11-20T15:53:17;14.52;67.96
76239;SHT30;65043;48.392;-4.472;2022-11-20T15:55:43;14.49;68.04
76239;SHT30;65043;48.392;-4.472;2022-11-20T15:58:08;14.48;67.89
76239;SHT30;65043;48.392;-4.472;2022-11-20T16:00:34;14.48;67.92
76239;SHT30;65043;48.392;-4.472;2022-11-20T16:02:59;14.45;67.95
76239;SHT30;65043;48.392;-4.472;2022-11-20T16:05:27;14.46;68.28
76239;SHT30;65043;48.392;-4.472;2022-11-20T16:07:53;14.48;68.28
76239;SHT30;65043;48.392;-4.472;2022-11-20T16:10:18;14.49;68.00
76239;SHT30;65043;48.392;-4.472;2022-11-20T16:12:44;14.48;68.02
76239;SHT30;65043;48.392;-4.472;2022-11-20T16:15:28;14.49;68.32
76239;SHT30;65043;48.392;-4.472;2022-11-20T16:18:20;14.46;68.33
76239;SHT30;65043;48.392;-4.472;2022-11-20T16:20:50;14.43;68.30
76239;SHT30;65043;48.392;-4.472;2022-11-20T16:23:16;14.46;68.33
76239;SHT30;65043;48.392;-4.472;2022-11-20T16:25:42;14.46;68.59
76239;SHT30;65043;48.392;-4.472;2022-11-20T16:28:08;14.48;68.63
76239;SHT30;65043;48.392;-4.472;2022-11-20T16:30:34;14.46;68.57
76239;SHT30;65043;48.392;-4.472;2022-11-20T16:33:00;14.43;68.46
76239;SHT30;65043;48.392;-4.472;2022-11-20T16:35:30;14.45;68.56
76239;SHT30;65043;48.392;-4.472;2022-11-20T16:37:57;14.49;68.41
76239;SHT30;65043;48.392;-4.472;2022-11-20T16:40:23;14.45;68.59
76239;SHT30;65043;48.392;-4.472;2022-11-20T16:42:49;14.45;68.55
76239;SHT30;65043;48.392;-4.472;2022-11-20T16:45:15;14.45;68.51
76239;SHT30;65043;48.392;-4.472;2022-11-20T16:47:40;14.45;68.50
76239;SHT30;65043;48.392;-4.472;2022-11-20T16:50:06;14.45;68.58
76239;SHT30;65043;48.392;-4.472;2022-11-20T16:52:32;14.43;68.56
76239;SHT30;65043;48.392;-4.472;2022-11-20T16:54:57;14.41;68.77
76239;SHT30;65043;48.392;-4.472;2022-11-20T16:57:23;14.42;68.66
76239;SHT30;65043;48.392;-4.472;2022-11-20T16:59:49;14.41;68.93
76239;SHT30;65043;48.392;-4.472;2022-11-20T17:02:15;14.46;68.73
76239;SHT30;65043;48.392;-4.472;2022-11-20T17:04:41;14.38;68.73
76239;SHT30;65043;48.392;-4.472;2022-11-20T17:07:06;14.36;68.86
76239;SHT30;65043;48.392;-4.472;2022-11-20T17:09:32;14.36;68.89
76239;SHT30;65043;48.392;-4.472;2022-11-20T17:11:58;14.36;69.02
76239;SHT30;65043;48.392;-4.472;2022-11-20T17:14:23;14.38;68.90